createdAt,value
2022-08-28T00:01:01.746Z,3.92
2022-08-28T00:03:30.447Z,3.45
2022-08-28T00:05:58.473Z,3.75
2022-08-28T00:08:26.219Z,4.25
2022-08-28T00:10:54.388Z,3.22
2022-08-28T00:13:25.316Z,3.65
2022-08-28T00:16:00.805Z,4.53
2022-08-28T00:18:31.222Z,4.50
2022-08-28T00:20:59.648Z,4.45
2022-08-28T00:23:42.199Z,4.18
2022-08-28T00:26:11.691Z,4.10
2022-08-28T00:28:38.700Z,4.18
2022-08-28T00:31:06.052Z,3.75
2022-08-28T00:33:34.947Z,3.75
2022-08-28T00:36:03.357Z,3.92
2022-08-28T00:38:31.140Z,3.50
2022-08-28T00:41:04.027Z,4.40
2022-08-28T00:43:49.377Z,4.05
2022-08-28T00:46:23.655Z,4.22
2022-08-28T00:48:50.921Z,4.03
2022-08-28T00:51:39.533Z,3.60
2022-08-28T00:54:08.298Z,3.20
2022-08-28T00:56:38.524Z,3.70
2022-08-28T00:59:11.997Z,3.80
2022-08-28T01:01:39.437Z,4.18
2022-08-28T01:04:06.729Z,3.58
2022-08-28T01:06:36.071Z,3.45
2022-08-28T01:09:05.014Z,3.92
2022-08-28T01:11:33.502Z,3.47
2022-08-28T01:14:02.939Z,4.30
2022-08-28T01:16:33.801Z,3.70
2022-08-28T01:19:09.619Z,4.93
2022-08-28T01:21:53.314Z,4.45
2022-08-28T01:24:21.131Z,3.97
2022-08-28T01:26:48.276Z,3.50
2022-08-28T01:29:15.667Z,3.50
2022-08-28T01:31:43.290Z,3.80
2022-08-28T01:34:13.071Z,4.30
2022-08-28T01:36:41.959Z,3.90
2022-08-28T01:39:19.880Z,4.30
2022-08-28T01:41:52.012Z,4.10
2022-08-28T01:44:25.826Z,3.65
2022-08-28T01:46:56.143Z,4.45
2022-08-28T01:49:24.859Z,4.57
2022-08-28T01:51:52.438Z,4.18
2022-08-28T01:54:22.145Z,4.05
2022-08-28T01:56:51.433Z,3.85
2022-08-28T01:59:18.579Z,4.05
2022-08-28T02:01:45.826Z,4.80
2022-08-28T02:04:13.611Z,4.18
2022-08-28T02:06:41.677Z,4.28
2022-08-28T02:09:14.312Z,4.10
2022-08-28T02:11:45.334Z,4.70
2022-08-28T02:14:14.883Z,4.32
2022-08-28T02:16:41.972Z,4.68
2022-08-28T02:19:09.780Z,4.75
2022-08-28T02:21:36.801Z,4.38
2022-08-28T02:24:04.977Z,4.72
2022-08-28T02:26:32.347Z,4.18
2022-08-28T02:28:59.894Z,4.22
2022-08-28T02:31:28.050Z,4.93
2022-08-28T02:33:55.865Z,4.43
2022-08-28T02:36:23.425Z,4.35
2022-08-28T02:38:56.834Z,4.65
2022-08-28T02:41:43.318Z,4.97
2022-08-28T02:44:10.464Z,4.85
2022-08-28T02:46:37.484Z,5.55
2022-08-28T02:49:04.477Z,4.82
2022-08-28T02:51:35.411Z,5.65
2022-08-28T02:54:03.156Z,5.13
2022-08-28T02:56:31.029Z,4.78
2022-08-28T02:58:58.315Z,5.15
2022-08-28T03:01:25.440Z,4.55
2022-08-28T03:03:52.549Z,5.05
2022-08-28T03:06:19.547Z,4.68
2022-08-28T03:08:46.638Z,5.32
2022-08-28T03:11:13.612Z,5.30
2022-08-28T03:13:42.375Z,5.05
2022-08-28T03:16:09.611Z,4.53
2022-08-28T03:18:37.260Z,5.22
2022-08-28T03:21:04.914Z,5.15
2022-08-28T03:23:32.100Z,5.10
2022-08-28T03:26:04.925Z,5.63
2022-08-28T03:28:45.400Z,5.20
2022-08-28T03:31:17.820Z,4.82
2022-08-28T03:33:47.096Z,5.47
2022-08-28T03:36:21.484Z,5.00
2022-08-28T03:38:49.883Z,5.13
2022-08-28T03:41:21.566Z,5.82
2022-08-28T03:43:48.682Z,5.68
2022-08-28T03:46:20.495Z,5.68
2022-08-28T03:48:47.617Z,4.97
2022-08-28T03:51:27.986Z,6.43
2022-08-28T03:53:59.334Z,5.55
2022-08-28T03:56:29.697Z,5.47
2022-08-28T03:59:01.384Z,5.22
2022-08-28T04:01:29.308Z,5.65
2022-08-28T04:03:57.208Z,5.97
2022-08-28T04:06:24.745Z,6.22
2022-08-28T04:08:51.825Z,5.95
2022-08-28T04:11:18.880Z,6.20
2022-08-28T04:13:46.105Z,6.35
2022-08-28T04:16:18.951Z,6.45
2022-08-28T04:18:49.037Z,6.20
2022-08-28T04:21:23.568Z,6.32
2022-08-28T04:23:51.200Z,6.18
2022-08-28T04:26:24.095Z,7.15
2022-08-28T04:28:52.790Z,6.18
2022-08-28T04:31:32.367Z,5.78
2022-08-28T04:34:06.569Z,6.75
2022-08-28T04:36:33.837Z,5.65
2022-08-28T04:39:02.762Z,6.07
2022-08-28T04:41:30.381Z,5.85
2022-08-28T04:43:58.460Z,7.13
2022-08-28T04:46:26.101Z,7.40
2022-08-28T04:48:53.161Z,6.88
2022-08-28T04:51:20.567Z,6.43
2022-08-28T04:53:48.051Z,5.90
2022-08-28T04:56:15.819Z,6.65
2022-08-28T04:58:44.272Z,5.68
2022-08-28T05:01:26.857Z,6.45
2022-08-28T05:03:58.863Z,7.57
2022-08-28T05:06:28.596Z,7.15
2022-08-28T05:08:58.479Z,6.90
2022-08-28T05:11:33.418Z,5.95
2022-08-28T05:14:15.963Z,6.05
2022-08-28T05:16:53.177Z,5.95
2022-08-28T05:19:21.804Z,5.10
2022-08-28T05:21:48.959Z,5.78
2022-08-28T05:24:16.709Z,5.82
2022-08-28T05:26:43.856Z,5.45
2022-08-28T05:29:16.870Z,5.00
2022-08-28T05:31:44.403Z,4.95
2022-08-28T05:34:15.153Z,4.53
2022-08-28T05:36:42.784Z,4.95
2022-08-28T05:39:13.194Z,4.28
2022-08-28T05:41:44.942Z,4.35
2022-08-28T05:44:16.020Z,5.40
2022-08-28T05:46:47.662Z,5.13
2022-08-28T05:49:18.369Z,4.85
2022-08-28T05:51:46.988Z,5.03
2022-08-28T05:54:16.059Z,5.90
2022-08-28T05:56:45.758Z,4.85
2022-08-28T05:59:14.273Z,5.10
2022-08-28T06:01:46.220Z,4.95
2022-08-28T06:04:23.778Z,5.35
2022-08-28T06:06:51.514Z,5.53
2022-08-28T06:09:29.331Z,5.35
2022-08-28T06:12:00.974Z,4.47
2022-08-28T06:14:31.243Z,5.25
2022-08-28T06:16:59.993Z,4.22
2022-08-28T06:19:30.083Z,5.40
2022-08-28T06:22:04.401Z,5.07
2022-08-28T06:24:35.028Z,5.78
2022-08-28T06:27:02.098Z,5.25
2022-08-28T06:29:29.597Z,5.78
2022-08-28T06:32:01.253Z,5.35
2022-08-28T06:34:29.513Z,4.90
2022-08-28T06:36:57.957Z,5.38
2022-08-28T06:39:24.955Z,5.25
2022-08-28T06:41:53.699Z,5.97
2022-08-28T06:44:21.699Z,5.57
2022-08-28T06:46:52.484Z,5.32
2022-08-28T06:49:19.545Z,5.18
2022-08-28T06:51:46.728Z,4.97
2022-08-28T06:54:21.105Z,5.28
2022-08-28T06:56:49.741Z,4.90
2022-08-28T06:59:16.868Z,5.03
2022-08-28T07:01:44.087Z,4.68
2022-08-28T07:04:13.668Z,5.00
2022-08-28T07:06:53.665Z,4.90
2022-08-28T07:09:21.946Z,4.13
2022-08-28T07:11:49.039Z,5.13
2022-08-28T07:14:16.220Z,4.60
2022-08-28T07:16:44.458Z,4.35
2022-08-28T07:19:13.294Z,4.57
2022-08-28T07:21:43.943Z,4.20
2022-08-28T07:24:15.572Z,4.28
2022-08-28T07:26:45.305Z,4.28
2022-08-28T07:29:12.977Z,4.40
2022-08-28T07:31:44.743Z,3.85
2022-08-28T07:34:14.385Z,4.38
2022-08-28T07:36:42.855Z,3.58
2022-08-28T07:39:12.186Z,4.30
2022-08-28T07:41:42.812Z,4.43
2022-08-28T07:44:33.619Z,4.43
2022-08-28T07:47:05.691Z,4.07
2022-08-28T07:49:35.313Z,3.97
2022-08-28T07:52:02.965Z,4.07
2022-08-28T07:54:29.982Z,3.70
2022-08-28T07:56:57.126Z,3.97
2022-08-28T07:59:24.481Z,3.42
2022-08-28T08:01:52.841Z,4.03
2022-08-28T08:04:22.407Z,4.43
2022-08-28T08:06:57.558Z,3.95
2022-08-28T08:09:26.165Z,3.85
2022-08-28T08:11:54.973Z,4.15
2022-08-28T08:14:22.762Z,3.78
2022-08-28T08:16:49.962Z,3.70
2022-08-28T08:19:17.467Z,4.18
2022-08-28T08:21:48.357Z,3.88
2022-08-28T08:24:21.160Z,3.70
2022-08-28T08:26:59.069Z,3.85
2022-08-28T08:29:32.478Z,3.40
2022-08-28T08:32:07.859Z,3.88
2022-08-28T08:34:40.918Z,4.05
2022-08-28T08:37:08.474Z,3.47
2022-08-28T08:39:36.915Z,4.10
2022-08-28T08:42:18.521Z,3.42
2022-08-28T08:44:48.364Z,3.60
2022-08-28T08:47:40.249Z,3.42
2022-08-28T08:50:17.249Z,4.15
2022-08-28T08:53:15.135Z,3.50
2022-08-28T08:55:50.794Z,3.65
2022-08-28T08:58:37.825Z,3.67
2022-08-28T09:01:28.604Z,4.28
2022-08-28T09:04:28.668Z,3.85
2022-08-28T09:07:13.636Z,3.70
2022-08-28T09:09:56.454Z,3.90
2022-08-28T09:12:29.851Z,4.03
2022-08-28T09:15:33.726Z,4.40
2022-08-28T09:18:22.396Z,4.18
2022-08-28T09:20:58.914Z,3.90
2022-08-28T09:23:29.997Z,4.57
2022-08-28T09:26:12.585Z,4.07
2022-08-28T09:28:41.940Z,4.53
2022-08-28T09:31:16.173Z,5.00
2022-08-28T09:33:51.926Z,5.35
2022-08-28T09:36:36.421Z,5.25
2022-08-28T09:39:48.696Z,4.13
2022-08-28T09:42:46.004Z,4.15
2022-08-28T09:45:24.567Z,4.40
2022-08-28T09:48:02.645Z,4.68
2022-08-28T09:50:29.744Z,5.43
2022-08-28T09:53:20.802Z,5.03
2022-08-28T09:56:10.939Z,4.28
2022-08-28T09:58:56.283Z,4.78
2022-08-28T10:01:32.436Z,4.55
2022-08-28T10:04:17.990Z,4.72
2022-08-28T10:07:29.156Z,4.85
2022-08-28T10:09:56.345Z,4.45
2022-08-28T10:12:50.266Z,5.43
2022-08-28T10:16:03.533Z,4.43
2022-08-28T10:18:54.722Z,4.43
2022-08-28T10:21:38.696Z,4.03
2022-08-28T10:24:31.431Z,4.53
2022-08-28T10:27:24.190Z,5.03
2022-08-28T10:30:05.141Z,4.15
2022-08-28T10:32:40.065Z,4.20
2022-08-28T10:35:40.918Z,4.50
2022-08-28T10:38:17.595Z,4.55
2022-08-28T10:41:17.209Z,4.53
2022-08-28T10:43:51.358Z,4.65
2022-08-28T10:46:28.102Z,4.22
2022-08-28T10:49:23.297Z,3.95
2022-08-28T10:51:59.486Z,4.50
2022-08-28T10:54:38.939Z,4.00
2022-08-28T10:57:17.275Z,3.95
2022-08-28T10:59:50.294Z,4.05
2022-08-28T11:02:21.336Z,4.38
2022-08-28T11:04:49.413Z,4.57
2022-08-28T11:07:38.800Z,4.53
2022-08-28T11:10:46.900Z,4.18
2022-08-28T11:13:41.660Z,4.60
2022-08-28T11:16:44.415Z,3.80
2022-08-28T11:19:50.283Z,4.20
2022-08-28T11:22:34.091Z,4.53
2022-08-28T11:25:33.115Z,4.47
2022-08-28T11:28:25.096Z,4.18
2022-08-28T11:30:58.092Z,3.92
2022-08-28T11:33:41.958Z,4.50
2022-08-28T11:36:32.554Z,3.78
2022-08-28T11:39:05.727Z,4.32
2022-08-28T11:41:40.551Z,4.38
2022-08-28T11:44:13.464Z,4.65
2022-08-28T11:46:48.309Z,4.65
2022-08-28T11:49:27.020Z,4.25
2022-08-28T11:52:24.820Z,4.38
2022-08-28T11:55:29.211Z,4.00
2022-08-28T11:58:16.064Z,4.07
2022-08-28T12:01:08.980Z,3.85
2022-08-28T12:04:03.835Z,4.18
2022-08-28T12:06:52.653Z,4.00
2022-08-28T12:09:47.501Z,4.15
2022-08-28T12:12:46.469Z,4.43
2022-08-28T12:15:28.750Z,4.57
2022-08-28T12:18:05.439Z,4.22
2022-08-28T12:21:04.296Z,3.88
2022-08-28T12:23:58.898Z,4.05
2022-08-28T12:26:43.729Z,4.25
2022-08-28T12:29:32.480Z,4.03
2022-08-28T12:32:27.430Z,3.92
2022-08-28T12:34:57.597Z,3.70
2022-08-28T12:37:52.177Z,4.05
2022-08-28T12:40:50.160Z,4.03
2022-08-28T12:43:46.978Z,3.92
2022-08-28T12:46:30.974Z,3.72
2022-08-28T12:49:24.315Z,3.60
2022-08-28T12:51:51.351Z,3.90
2022-08-28T12:54:18.368Z,4.38
2022-08-28T12:56:45.365Z,3.70
2022-08-28T12:59:49.010Z,3.63
2022-08-28T13:02:28.316Z,4.22
2022-08-28T13:05:07.142Z,4.10
2022-08-28T13:07:46.154Z,4.13
2022-08-28T13:10:34.056Z,4.20
2022-08-28T13:13:11.070Z,3.85
2022-08-28T13:15:52.644Z,3.95
2022-08-28T13:18:49.970Z,3.38
2022-08-28T13:21:32.853Z,3.33
2022-08-28T13:24:21.990Z,4.18
2022-08-28T13:27:00.903Z,3.85
2022-08-28T13:29:28.833Z,3.63
2022-08-28T13:32:07.123Z,3.38
2022-08-28T13:34:37.922Z,4.00
2022-08-28T13:37:18.529Z,3.45
2022-08-28T13:39:49.993Z,4.18
2022-08-28T13:42:18.130Z,3.63
2022-08-28T13:44:56.662Z,3.95
2022-08-28T13:47:23.732Z,3.80
2022-08-28T13:49:50.830Z,3.40
2022-08-28T13:52:18.154Z,3.50
2022-08-28T13:54:45.735Z,3.53
2022-08-28T13:57:13.890Z,3.83
2022-08-28T13:59:41.789Z,3.67
2022-08-28T14:02:33.355Z,3.75
2022-08-28T14:05:00.737Z,3.55
2022-08-28T14:07:29.417Z,3.33
2022-08-28T14:09:56.737Z,3.47
2022-08-28T14:12:32.627Z,3.63
2022-08-28T14:15:01.658Z,3.67
2022-08-28T14:17:29.112Z,3.58
2022-08-28T14:19:56.242Z,3.63
2022-08-28T14:22:23.326Z,3.33
2022-08-28T14:24:50.340Z,4.25
2022-08-28T14:27:17.763Z,3.35
2022-08-28T14:29:44.957Z,3.13
2022-08-28T14:32:12.204Z,4.20
2022-08-28T14:34:39.299Z,4.32
2022-08-28T14:37:06.411Z,3.95
2022-08-28T14:39:33.630Z,3.42
2022-08-28T14:42:00.609Z,3.83
2022-08-28T14:44:27.767Z,3.78
2022-08-28T14:46:57.205Z,3.97
2022-08-28T14:49:26.172Z,3.97
2022-08-28T14:51:54.164Z,3.97
2022-08-28T14:54:24.098Z,3.60
2022-08-28T14:56:52.808Z,3.03
2022-08-28T14:59:25.629Z,3.88
2022-08-28T15:01:55.653Z,3.78
2022-08-28T15:04:24.536Z,3.60
2022-08-28T15:06:59.090Z,3.42
2022-08-28T15:09:26.892Z,3.83
2022-08-28T15:11:54.575Z,3.97
2022-08-28T15:14:22.006Z,3.42
2022-08-28T15:16:49.508Z,3.15
2022-08-28T15:19:18.049Z,3.30
2022-08-28T15:21:49.989Z,3.83
2022-08-28T15:24:23.097Z,3.20
2022-08-28T15:26:50.717Z,3.70
2022-08-28T15:29:18.341Z,4.10
2022-08-28T15:31:49.258Z,3.60
2022-08-28T15:34:28.148Z,3.78
2022-08-28T15:36:56.873Z,3.88
2022-08-28T15:39:45.265Z,3.70
2022-08-28T15:42:13.164Z,3.75
2022-08-28T15:44:40.293Z,4.18
2022-08-28T15:47:08.312Z,3.70
2022-08-28T15:49:43.378Z,3.88
2022-08-28T15:52:14.463Z,4.47
2022-08-28T15:54:42.675Z,3.80
2022-08-28T15:57:10.075Z,3.45
2022-08-28T15:59:39.987Z,3.85
2022-08-28T16:02:23.506Z,4.13
2022-08-28T16:04:51.406Z,4.00
2022-08-28T16:07:20.973Z,3.95
2022-08-28T16:09:48.644Z,4.25
2022-08-28T16:12:16.348Z,3.30
2022-08-28T16:14:43.834Z,3.53
2022-08-28T16:17:11.581Z,3.70
2022-08-28T16:19:40.754Z,3.72
2022-08-28T16:22:13.083Z,3.28
2022-08-28T16:24:40.080Z,3.22
2022-08-28T16:27:13.112Z,3.65
2022-08-28T16:29:44.181Z,3.50
2022-08-28T16:32:11.646Z,3.30
2022-08-28T16:34:39.776Z,3.80
2022-08-28T16:37:07.816Z,3.50
2022-08-28T16:39:36.322Z,4.18
2022-08-28T16:42:04.055Z,4.05
2022-08-28T16:44:31.178Z,4.03
2022-08-28T16:46:58.374Z,3.90
2022-08-28T16:49:25.435Z,3.35
2022-08-28T16:51:52.508Z,4.22
2022-08-28T16:54:21.465Z,3.58
2022-08-28T16:56:48.844Z,3.80
2022-08-28T16:59:18.239Z,3.95
2022-08-28T17:01:45.621Z,3.97
2022-08-28T17:04:20.448Z,3.65
2022-08-28T17:06:47.569Z,4.05
2022-08-28T17:09:14.677Z,4.07
2022-08-28T17:11:41.686Z,3.85
2022-08-28T17:14:10.999Z,3.63
2022-08-28T17:16:38.637Z,3.90
2022-08-28T17:19:05.642Z,3.97
2022-08-28T17:21:51.025Z,3.80
2022-08-28T17:24:18.218Z,3.67
2022-08-28T17:26:45.429Z,4.07
2022-08-28T17:29:12.571Z,3.90
2022-08-28T17:31:41.088Z,3.55
2022-08-28T17:34:08.571Z,4.50
2022-08-28T17:36:39.337Z,7.03
2022-08-28T17:39:11.943Z,3.20
2022-08-28T17:41:41.086Z,3.67
2022-08-28T17:44:08.758Z,3.65
2022-08-28T17:46:37.959Z,3.63
2022-08-28T17:49:07.950Z,3.65
2022-08-28T17:51:43.269Z,3.40
2022-08-28T17:54:18.288Z,3.38
2022-08-28T17:56:46.382Z,3.40
2022-08-28T17:59:14.770Z,3.47
2022-08-28T18:01:44.534Z,3.78
2022-08-28T18:04:12.973Z,3.60
2022-08-28T18:06:40.454Z,4.07
2022-08-28T18:09:10.708Z,3.90
2022-08-28T18:11:37.935Z,3.55
2022-08-28T18:14:06.479Z,3.92
2022-08-28T18:16:36.225Z,3.50
2022-08-28T18:19:07.049Z,3.67
2022-08-28T18:21:34.485Z,3.60
2022-08-28T18:24:01.807Z,3.85
2022-08-28T18:26:29.447Z,3.83
2022-08-28T18:28:57.167Z,3.08
2022-08-28T18:31:24.606Z,3.47
2022-08-28T18:33:52.119Z,3.90
2022-08-28T18:36:19.628Z,3.17
2022-08-28T18:38:47.146Z,4.00
2022-08-28T18:41:14.170Z,3.60
2022-08-28T18:43:42.013Z,3.17
2022-08-28T18:46:10.022Z,3.55
2022-08-28T18:48:38.075Z,4.03
2022-08-28T18:51:12.748Z,3.88
2022-08-28T18:53:42.343Z,3.38
2022-08-28T18:56:12.325Z,3.70
2022-08-28T18:58:41.530Z,3.90
2022-08-28T19:01:10.336Z,4.30
2022-08-28T19:03:37.971Z,4.07
2022-08-28T19:06:06.356Z,4.13
2022-08-28T19:08:35.268Z,3.97
2022-08-28T19:11:09.338Z,3.55
2022-08-28T19:13:36.797Z,4.30
2022-08-28T19:16:05.562Z,3.92
2022-08-28T19:18:32.757Z,4.32
2022-08-28T19:21:19.706Z,3.95
2022-08-28T19:23:55.447Z,3.90
2022-08-28T19:26:27.514Z,3.45
2022-08-28T19:28:55.351Z,3.58
2022-08-28T19:31:25.069Z,3.97
2022-08-28T19:33:52.281Z,4.13
2022-08-28T19:36:21.322Z,4.10
2022-08-28T19:38:48.469Z,4.00
2022-08-28T19:41:15.434Z,3.60
2022-08-28T19:43:44.460Z,3.60
2022-08-28T19:46:20.001Z,3.67
2022-08-28T19:48:52.346Z,3.78
2022-08-28T19:51:24.036Z,3.58
2022-08-28T19:53:58.956Z,3.83
2022-08-28T19:56:32.346Z,3.30
2022-08-28T19:59:02.983Z,4.13
2022-08-28T20:01:36.914Z,3.20
2022-08-28T20:04:07.409Z,4.25
2022-08-28T20:06:36.648Z,3.47
2022-08-28T20:09:08.302Z,4.22
2022-08-28T20:11:39.717Z,3.75
2022-08-28T20:14:07.243Z,3.97
2022-08-28T20:16:39.274Z,3.60
2022-08-28T20:19:10.393Z,3.40
2022-08-28T20:21:40.684Z,3.60
2022-08-28T20:24:11.316Z,3.72
2022-08-28T20:26:38.576Z,3.40
2022-08-28T20:29:08.612Z,3.15
2022-08-28T20:31:40.350Z,3.90
2022-08-28T20:34:10.651Z,3.35
2022-08-28T20:36:38.565Z,3.58
2022-08-28T20:39:09.158Z,3.65
2022-08-28T20:41:38.958Z,3.70
2022-08-28T20:44:09.252Z,3.20
2022-08-28T20:46:40.885Z,3.58
2022-08-28T20:49:11.737Z,3.65
2022-08-28T20:51:53.638Z,3.85
2022-08-28T20:54:24.210Z,3.47
2022-08-28T20:56:52.248Z,4.10
2022-08-28T20:59:21.784Z,3.65
2022-08-28T21:01:52.020Z,3.80
2022-08-28T21:04:19.667Z,3.33
2022-08-28T21:06:46.738Z,4.07
2022-08-28T21:09:15.783Z,3.35
2022-08-28T21:11:43.960Z,4.05
2022-08-28T21:14:11.495Z,3.92
2022-08-28T21:16:39.428Z,3.42
2022-08-28T21:19:16.707Z,4.20
2022-08-28T21:21:44.702Z,3.53
2022-08-28T21:24:15.507Z,3.70
2022-08-28T21:26:46.204Z,3.65
2022-08-28T21:29:15.354Z,4.15
2022-08-28T21:31:44.629Z,4.00
2022-08-28T21:34:12.095Z,3.60
2022-08-28T21:36:49.507Z,4.22
2022-08-28T21:39:20.504Z,4.03
2022-08-28T21:41:49.559Z,3.95
2022-08-28T21:44:17.521Z,4.00
2022-08-28T21:46:44.799Z,3.80
2022-08-28T21:49:12.171Z,4.00
2022-08-28T21:51:39.444Z,3.92
2022-08-28T21:54:07.251Z,4.22
2022-08-28T21:56:34.703Z,4.18
2022-08-28T21:59:02.107Z,3.85
2022-08-28T22:01:29.178Z,4.82
2022-08-28T22:03:57.037Z,4.30
2022-08-28T22:06:26.295Z,4.03
2022-08-28T22:08:54.892Z,3.90
2022-08-28T22:11:24.912Z,3.78
2022-08-28T22:13:54.348Z,4.53
2022-08-28T22:16:21.987Z,4.97
2022-08-28T22:18:49.464Z,4.35
2022-08-28T22:21:40.018Z,3.78
2022-08-28T22:24:08.804Z,4.68
2022-08-28T22:26:36.076Z,3.53
2022-08-28T22:29:03.558Z,3.95
2022-08-28T22:31:30.588Z,5.28
2022-08-28T22:33:58.263Z,4.70
2022-08-28T22:36:25.236Z,4.57
2022-08-28T22:38:57.030Z,4.63
2022-08-28T22:41:25.233Z,4.43
2022-08-28T22:43:53.561Z,4.40
2022-08-28T22:46:21.745Z,4.13
2022-08-28T22:48:51.091Z,4.53
2022-08-28T22:51:19.630Z,4.15
2022-08-28T22:53:48.056Z,3.97
2022-08-28T22:56:17.663Z,4.57
2022-08-28T22:58:44.987Z,4.80
2022-08-28T23:01:19.418Z,5.15
2022-08-28T23:03:47.238Z,4.97
2022-08-28T23:06:15.296Z,5.00
2022-08-28T23:08:43.506Z,4.65
2022-08-28T23:11:11.281Z,5.03
2022-08-28T23:13:38.879Z,4.70
2022-08-28T23:16:06.850Z,4.78
2022-08-28T23:18:51.885Z,5.07
2022-08-28T23:21:26.257Z,4.50
2022-08-28T23:23:54.976Z,4.70
2022-08-28T23:26:23.713Z,4.95
2022-08-28T23:28:52.145Z,5.05
2022-08-28T23:31:19.314Z,5.05
2022-08-28T23:33:46.618Z,5.55
2022-08-28T23:36:15.046Z,4.65
2022-08-28T23:38:44.777Z,5.18
2022-08-28T23:41:12.195Z,6.07
2022-08-28T23:43:40.841Z,4.88
2022-08-28T23:46:09.829Z,5.32
2022-08-28T23:48:40.925Z,4.82
2022-08-28T23:51:13.559Z,5.07
2022-08-28T23:53:43.232Z,5.78
2022-08-28T23:56:10.824Z,5.27
2022-08-28T23:58:43.147Z,5.47
